createdAt,value
2023-05-16T00:01:54.656Z,7.53
2023-05-16T00:04:23.774Z,7.23
2023-05-16T00:06:51.021Z,7.63
2023-05-16T00:09:19.185Z,7.97
2023-05-16T00:11:48.277Z,8.03
2023-05-16T00:14:16.097Z,9.77
2023-05-16T00:16:43.884Z,7.47
2023-05-16T00:19:11.388Z,7.77
2023-05-16T00:21:38.634Z,7.43
2023-05-16T00:24:07.672Z,7.50
2023-05-16T00:26:34.877Z,8.17
2023-05-16T00:29:02.414Z,8.90
2023-05-16T00:31:36.150Z,8.23
2023-05-16T00:34:03.775Z,8.37
2023-05-16T00:36:31.819Z,8.73
2023-05-16T00:39:01.915Z,8.60
2023-05-16T00:41:32.517Z,7.60
2023-05-16T00:44:00.096Z,8.33
2023-05-16T00:46:30.131Z,7.60
2023-05-16T00:48:57.537Z,8.10
2023-05-16T00:51:27.155Z,7.90
2023-05-16T00:53:58.088Z,9.33
2023-05-16T00:56:25.499Z,7.83
2023-05-16T00:58:54.443Z,7.43
2023-05-16T01:01:24.683Z,8.60
2023-05-16T01:03:58.051Z,7.73
2023-05-16T01:06:25.483Z,8.53
2023-05-16T01:08:52.808Z,8.73
2023-05-16T01:11:29.895Z,9.47
2023-05-16T01:14:18.463Z,8.97
2023-05-16T01:16:52.482Z,8.20
2023-05-16T01:19:38.614Z,9.03
2023-05-16T01:22:31.122Z,8.40
2023-05-16T01:25:17.471Z,8.87
2023-05-16T01:27:45.949Z,8.47
2023-05-16T01:30:17.062Z,8.80
2023-05-16T01:32:44.716Z,8.47
2023-05-16T01:35:13.075Z,9.47
2023-05-16T01:38:00.607Z,9.13
2023-05-16T01:40:45.018Z,8.30
2023-05-16T01:43:14.866Z,8.67
2023-05-16T01:45:48.278Z,8.23
2023-05-16T01:48:18.811Z,9.10
2023-05-16T01:50:48.545Z,8.73
2023-05-16T01:53:18.390Z,9.87
2023-05-16T01:55:57.535Z,9.63
2023-05-16T01:58:27.036Z,9.43
2023-05-16T02:00:54.701Z,9.40
2023-05-16T02:03:22.075Z,8.97
2023-05-16T02:05:49.533Z,8.93
2023-05-16T02:08:16.841Z,9.30
2023-05-16T02:10:44.591Z,9.53
2023-05-16T02:13:11.741Z,9.47
2023-05-16T02:15:38.968Z,8.97
2023-05-16T02:18:06.322Z,9.20
2023-05-16T02:20:33.777Z,9.10
2023-05-16T02:23:03.178Z,9.53
2023-05-16T02:25:32.722Z,8.83
2023-05-16T02:27:59.918Z,8.80
2023-05-16T02:30:27.516Z,9.20
2023-05-16T02:32:54.949Z,9.53
2023-05-16T02:35:22.398Z,9.37
2023-05-16T02:37:49.683Z,10.27
2023-05-16T02:40:17.573Z,10.30
2023-05-16T02:42:44.938Z,9.07
2023-05-16T02:45:12.505Z,9.23
2023-05-16T02:47:39.776Z,9.27
2023-05-16T02:50:07.229Z,9.47
2023-05-16T02:52:35.581Z,10.00
2023-05-16T02:57:33.021Z,9.37
2023-05-16T03:00:00.404Z,10.67
2023-05-16T03:02:27.844Z,10.07
2023-05-16T03:04:55.095Z,11.53
2023-05-16T03:07:22.297Z,9.57
2023-05-16T03:09:49.732Z,10.77
2023-05-16T03:12:17.092Z,9.60
2023-05-16T03:14:45.352Z,10.70
2023-05-16T03:17:12.660Z,9.73
2023-05-16T03:19:39.973Z,10.37
2023-05-16T03:22:08.464Z,11.10
2023-05-16T03:24:35.845Z,10.43
2023-05-16T03:27:04.496Z,10.37
2023-05-16T03:29:31.967Z,12.73
2023-05-16T03:31:59.573Z,11.70
2023-05-16T03:34:26.905Z,9.53
2023-05-16T03:36:54.725Z,10.80
2023-05-16T03:39:22.043Z,9.37
2023-05-16T03:41:49.393Z,9.73
2023-05-16T03:44:16.664Z,9.77
2023-05-16T03:46:44.332Z,10.20
2023-05-16T03:49:11.579Z,10.30
2023-05-16T03:51:39.133Z,10.47
2023-05-16T03:54:06.397Z,11.30
2023-05-16T03:56:33.695Z,12.30
2023-05-16T03:59:00.949Z,11.07
2023-05-16T04:01:28.251Z,10.50
2023-05-16T04:03:55.695Z,10.60
2023-05-16T04:06:23.037Z,10.90
2023-05-16T04:08:50.425Z,9.93
2023-05-16T04:11:17.687Z,10.50
2023-05-16T04:13:44.994Z,11.43
2023-05-16T04:16:12.985Z,11.97
2023-05-16T04:18:40.493Z,9.00
2023-05-16T04:21:07.800Z,10.93
2023-05-16T04:23:34.988Z,9.77
2023-05-16T04:26:04.700Z,10.90
2023-05-16T04:28:32.463Z,11.07
2023-05-16T04:30:59.714Z,10.80
2023-05-16T04:33:27.069Z,10.47
2023-05-16T04:35:54.774Z,11.00
2023-05-16T04:38:22.589Z,10.70
2023-05-16T04:40:53.176Z,12.33
2023-05-16T04:43:21.132Z,10.50
2023-05-16T04:45:48.516Z,10.50
2023-05-16T04:48:16.142Z,10.47
2023-05-16T04:50:43.442Z,11.43
2023-05-16T04:53:10.842Z,9.77
2023-05-16T04:55:38.217Z,11.50
2023-05-16T04:58:05.570Z,11.83
2023-05-16T05:00:33.310Z,11.37
2023-05-16T05:03:00.693Z,10.60
2023-05-16T05:05:28.122Z,12.10
2023-05-16T05:07:55.690Z,11.80
2023-05-16T05:10:22.981Z,10.67
2023-05-16T05:12:50.779Z,10.40
2023-05-16T05:15:19.221Z,10.20
2023-05-16T05:17:46.755Z,11.07
2023-05-16T05:20:14.090Z,11.37
2023-05-16T05:22:41.510Z,12.33
2023-05-16T05:25:09.084Z,13.43
2023-05-16T05:27:36.574Z,23.63
2023-05-16T05:30:04.543Z,14.63
2023-05-16T05:32:32.157Z,14.83
2023-05-16T05:34:59.572Z,12.83
2023-05-16T05:37:27.289Z,12.30
2023-05-16T05:39:54.657Z,11.70
2023-05-16T05:42:21.909Z,12.50
2023-05-16T05:44:49.184Z,13.67
2023-05-16T05:47:16.833Z,13.83
2023-05-16T05:49:44.199Z,14.77
2023-05-16T05:52:11.543Z,15.53
2023-05-16T05:54:38.802Z,15.97
2023-05-16T05:57:06.330Z,14.10
2023-05-16T05:59:34.059Z,16.23
2023-05-16T06:02:01.647Z,14.27
2023-05-16T06:04:28.970Z,15.73
2023-05-16T06:06:56.396Z,15.63
2023-05-16T06:09:23.669Z,13.53
2023-05-16T06:11:51.119Z,16.63
2023-05-16T06:14:18.400Z,14.53
2023-05-16T06:16:45.914Z,17.17
2023-05-16T06:19:16.230Z,18.83
2023-05-16T06:21:43.985Z,15.50
2023-05-16T06:24:12.414Z,16.67
2023-05-16T06:26:39.719Z,17.43
2023-05-16T06:29:07.046Z,17.17
2023-05-16T06:31:34.366Z,18.07
2023-05-16T06:34:02.110Z,19.30
2023-05-16T06:36:29.297Z,22.17
2023-05-16T06:38:56.775Z,21.43
2023-05-16T06:41:24.252Z,23.43
2023-05-16T06:43:51.812Z,23.10
2023-05-16T06:46:19.072Z,24.10
2023-05-16T06:48:46.437Z,26.03
2023-05-16T06:51:13.851Z,24.50
2023-05-16T06:53:41.234Z,23.00
2023-05-16T06:56:09.090Z,26.23
2023-05-16T06:58:36.595Z,24.80
2023-05-16T07:01:04.076Z,23.37
2023-05-16T07:03:31.970Z,23.87
2023-05-16T07:05:59.465Z,27.07
2023-05-16T07:08:26.785Z,23.60
2023-05-16T07:10:54.247Z,25.63
2023-05-16T07:13:21.717Z,22.20
2023-05-16T07:15:48.991Z,19.83
2023-05-16T07:18:16.386Z,17.73
2023-05-16T07:20:43.718Z,20.87
2023-05-16T07:23:11.181Z,18.10
2023-05-16T07:25:38.657Z,14.03
2023-05-16T07:28:06.068Z,15.00
2023-05-16T07:30:33.389Z,14.27
2023-05-16T07:33:00.731Z,13.43
2023-05-16T07:35:28.308Z,16.53
2023-05-16T07:37:55.941Z,17.73
2023-05-16T07:40:28.273Z,17.23
2023-05-16T07:42:55.920Z,14.47
2023-05-16T07:45:23.296Z,15.90
2023-05-16T07:47:50.699Z,14.27
2023-05-16T07:50:18.010Z,16.73
2023-05-16T07:52:45.364Z,13.77
2023-05-16T07:55:13.694Z,14.63
2023-05-16T07:57:41.052Z,14.67
2023-05-16T08:00:09.486Z,13.63
2023-05-16T08:02:40.057Z,14.10
2023-05-16T08:05:08.360Z,12.87
2023-05-16T08:07:36.102Z,12.90
2023-05-16T08:10:03.741Z,12.97
2023-05-16T08:12:31.222Z,12.60
2023-05-16T08:14:58.688Z,12.53
2023-05-16T08:17:26.069Z,11.73
2023-05-16T08:19:53.454Z,12.30
2023-05-16T08:22:21.046Z,13.77
2023-05-16T08:24:48.631Z,10.60
2023-05-16T08:27:16.017Z,11.50
2023-05-16T08:29:43.683Z,9.90
2023-05-16T08:32:11.332Z,11.00
2023-05-16T08:34:38.657Z,12.70
2023-05-16T08:37:06.418Z,12.83
2023-05-16T08:39:33.711Z,11.37
2023-05-16T08:42:01.315Z,10.63
2023-05-16T08:44:29.599Z,10.77
2023-05-16T08:46:57.642Z,11.20
2023-05-16T08:49:28.296Z,10.43
2023-05-16T08:52:01.210Z,13.07
2023-05-16T08:54:28.753Z,10.30
2023-05-16T08:56:56.971Z,9.20
2023-05-16T08:59:24.368Z,9.40
2023-05-16T09:01:51.785Z,11.13
2023-05-16T09:04:19.297Z,11.17
2023-05-16T09:06:46.665Z,9.67
2023-05-16T09:09:14.150Z,11.37
2023-05-16T09:11:42.922Z,11.43
2023-05-16T09:14:10.626Z,9.63
2023-05-16T09:16:38.009Z,11.80
2023-05-16T09:19:05.749Z,11.17
2023-05-16T09:21:36.509Z,8.97
2023-05-16T09:24:10.295Z,9.60
2023-05-16T09:26:39.423Z,9.97
2023-05-16T09:29:13.346Z,8.83
2023-05-16T09:31:40.803Z,8.70
2023-05-16T09:34:09.451Z,9.00
2023-05-16T09:36:37.724Z,9.43
2023-05-16T09:39:08.958Z,10.17
2023-05-16T09:41:41.039Z,9.07
2023-05-16T09:44:08.407Z,8.60
2023-05-16T09:46:37.498Z,12.27
2023-05-16T09:49:04.890Z,9.47
2023-05-16T09:51:33.551Z,10.40
2023-05-16T09:54:00.840Z,8.23
2023-05-16T09:56:30.134Z,9.60
2023-05-16T09:58:57.490Z,9.30
2023-05-16T10:01:25.265Z,8.77
2023-05-16T10:03:52.968Z,9.17
2023-05-16T10:06:20.860Z,9.33
2023-05-16T10:08:48.441Z,8.33
2023-05-16T10:11:17.076Z,8.17
2023-05-16T10:13:50.293Z,9.60
2023-05-16T10:16:18.532Z,8.80
2023-05-16T10:18:46.414Z,8.43
2023-05-16T10:21:17.801Z,8.93
2023-05-16T10:23:48.449Z,9.17
2023-05-16T10:26:17.810Z,7.57
2023-05-16T10:28:46.459Z,7.30
2023-05-16T10:31:15.700Z,8.07
2023-05-16T10:33:43.075Z,7.73
2023-05-16T10:36:13.705Z,7.67
2023-05-16T10:38:41.336Z,8.13
2023-05-16T10:41:10.340Z,6.93
2023-05-16T10:43:37.725Z,9.83
2023-05-16T10:46:14.223Z,7.90
2023-05-16T10:48:44.552Z,8.57
2023-05-16T10:51:29.032Z,7.80
2023-05-16T10:53:58.393Z,8.37
2023-05-16T10:56:26.938Z,7.50
2023-05-16T10:59:00.698Z,7.13
2023-05-16T11:01:32.654Z,6.93
2023-05-16T11:04:06.058Z,5.93
2023-05-16T11:06:41.328Z,6.67
2023-05-16T11:09:16.361Z,6.80
2023-05-16T11:11:49.160Z,6.77
2023-05-16T11:14:24.316Z,5.80
2023-05-16T11:16:53.455Z,5.43
2023-05-16T11:19:49.973Z,6.20
2023-05-16T11:22:21.162Z,6.63
2023-05-16T11:24:54.658Z,5.63
2023-05-16T11:27:23.757Z,6.77
2023-05-16T11:29:53.050Z,6.87
2023-05-16T11:32:23.856Z,7.40
2023-05-16T11:34:52.108Z,6.17
2023-05-16T11:37:20.989Z,5.17
2023-05-16T11:39:48.945Z,5.33
2023-05-16T11:42:16.650Z,5.77
2023-05-16T11:44:50.536Z,5.53
2023-05-16T11:47:17.842Z,6.37
2023-05-16T11:49:46.091Z,4.97
2023-05-16T11:52:18.176Z,5.13
2023-05-16T11:54:46.039Z,5.17
2023-05-16T11:57:13.360Z,5.00
2023-05-16T11:59:41.532Z,6.23
2023-05-16T12:02:10.049Z,6.57
2023-05-16T12:04:38.567Z,5.57
2023-05-16T12:07:06.392Z,4.83
2023-05-16T12:09:33.944Z,4.93
2023-05-16T12:12:05.077Z,4.80
2023-05-16T12:14:32.531Z,4.90
2023-05-16T12:17:00.016Z,5.13
2023-05-16T12:19:27.576Z,5.00
2023-05-16T12:21:55.096Z,5.03
2023-05-16T12:24:22.462Z,5.13
2023-05-16T12:26:50.049Z,5.00
2023-05-16T12:29:17.487Z,4.43
2023-05-16T12:31:45.089Z,4.87
2023-05-16T12:34:16.726Z,5.03
2023-05-16T12:36:44.567Z,4.33
2023-05-16T12:39:13.072Z,4.60
2023-05-16T12:41:43.833Z,4.80
2023-05-16T12:44:14.937Z,4.47
2023-05-16T12:46:43.374Z,4.83
2023-05-16T12:49:11.000Z,3.97
2023-05-16T12:51:38.758Z,4.50
2023-05-16T12:54:13.337Z,4.83
2023-05-16T12:56:41.361Z,4.20
2023-05-16T12:59:09.281Z,5.50
2023-05-16T13:01:36.997Z,4.10
2023-05-16T13:04:05.041Z,4.07
2023-05-16T13:06:48.840Z,4.60
2023-05-16T13:09:20.011Z,4.20
2023-05-16T13:11:47.630Z,4.80
2023-05-16T13:14:14.868Z,4.50
2023-05-16T13:16:42.303Z,4.47
2023-05-16T13:19:09.892Z,4.60
2023-05-16T13:21:37.287Z,4.07
2023-05-16T13:24:04.652Z,4.57
2023-05-16T13:26:31.957Z,5.00
2023-05-16T13:28:59.339Z,3.97
2023-05-16T13:31:26.754Z,3.87
2023-05-16T13:33:54.224Z,4.50
2023-05-16T13:36:21.456Z,4.43
2023-05-16T13:38:49.020Z,5.53
2023-05-16T13:41:16.236Z,4.43
2023-05-16T13:43:43.516Z,6.03
2023-05-16T13:46:11.147Z,4.27
2023-05-16T13:48:38.688Z,6.40
2023-05-16T13:51:06.005Z,3.80
2023-05-16T13:53:33.316Z,3.43
2023-05-16T13:56:01.041Z,3.57
2023-05-16T13:58:28.445Z,4.17
2023-05-16T14:00:56.040Z,3.43
2023-05-16T14:03:23.670Z,3.47
2023-05-16T14:05:51.848Z,4.07
2023-05-16T14:08:19.229Z,4.67
2023-05-16T14:10:46.761Z,5.30
2023-05-16T14:13:14.147Z,3.80
2023-05-16T14:15:58.215Z,3.70
2023-05-16T14:18:34.420Z,3.37
2023-05-16T14:21:02.305Z,3.40
2023-05-16T14:23:29.628Z,2.90
2023-05-16T14:25:57.069Z,3.30
2023-05-16T14:28:24.633Z,2.97
2023-05-16T14:30:52.428Z,3.40
2023-05-16T14:33:19.864Z,3.10
2023-05-16T14:35:49.567Z,2.83
2023-05-16T14:38:17.435Z,3.47
2023-05-16T14:40:44.909Z,3.30
2023-05-16T14:43:12.354Z,3.40
2023-05-16T14:45:39.794Z,3.50
2023-05-16T14:48:08.541Z,3.40
2023-05-16T14:50:36.156Z,3.10
2023-05-16T14:53:03.665Z,3.53
2023-05-16T14:55:31.133Z,3.33
2023-05-16T14:58:00.028Z,5.57
2023-05-16T15:00:28.324Z,5.10
2023-05-16T15:02:55.957Z,4.13
2023-05-16T15:05:25.583Z,3.07
2023-05-16T15:07:53.086Z,3.50
2023-05-16T15:10:20.715Z,4.57
2023-05-16T15:12:48.045Z,3.47
2023-05-16T15:15:16.753Z,4.37
2023-05-16T15:17:44.261Z,4.07
2023-05-16T15:20:12.294Z,3.23
2023-05-16T15:22:41.328Z,3.67
2023-05-16T15:25:09.815Z,4.70
2023-05-16T15:27:37.173Z,4.80
2023-05-16T15:30:04.898Z,5.93
2023-05-16T15:32:32.241Z,4.20
2023-05-16T15:34:59.699Z,2.50
2023-05-16T15:37:27.214Z,4.23
2023-05-16T15:39:54.726Z,4.63
2023-05-16T15:42:22.046Z,2.93
2023-05-16T15:44:49.330Z,3.97
2023-05-16T15:47:17.429Z,2.80
2023-05-16T15:49:46.100Z,3.13
2023-05-16T15:52:13.590Z,4.17
2023-05-16T15:54:41.472Z,3.23
2023-05-16T15:57:08.904Z,3.60
2023-05-16T15:59:36.238Z,3.43
2023-05-16T16:02:05.441Z,4.23
2023-05-16T16:04:32.811Z,4.90
2023-05-16T16:07:00.082Z,4.13
2023-05-16T16:09:27.525Z,3.33
2023-05-16T16:11:56.597Z,2.70
2023-05-16T16:14:24.676Z,3.20
2023-05-16T16:16:52.009Z,2.37
2023-05-16T16:19:19.362Z,4.50
2023-05-16T16:21:46.807Z,2.90
2023-05-16T16:24:15.094Z,4.97
2023-05-16T16:26:43.122Z,3.00
2023-05-16T16:29:10.360Z,2.57
2023-05-16T16:31:37.873Z,3.67
2023-05-16T16:34:05.689Z,3.03
2023-05-16T16:36:33.069Z,2.87
2023-05-16T16:39:00.712Z,3.00
2023-05-16T16:41:28.348Z,2.43
2023-05-16T16:43:55.834Z,3.37
2023-05-16T16:46:23.399Z,3.37
2023-05-16T16:48:52.500Z,2.57
2023-05-16T16:51:19.816Z,2.77
2023-05-16T16:53:47.164Z,3.10
2023-05-16T16:56:14.549Z,3.07
2023-05-16T16:58:41.928Z,2.77
2023-05-16T17:01:09.324Z,3.10
2023-05-16T17:03:36.860Z,2.10
2023-05-16T17:06:04.394Z,2.50
2023-05-16T17:08:31.751Z,14.77
2023-05-16T17:10:59.822Z,19.67
2023-05-16T17:13:33.468Z,4.87
2023-05-16T17:16:01.952Z,2.40
2023-05-16T17:18:29.191Z,2.13
2023-05-16T17:20:56.971Z,3.27
2023-05-16T17:23:24.360Z,3.43
2023-05-16T17:25:51.748Z,2.23
2023-05-16T17:28:19.075Z,2.20
2023-05-16T17:30:46.570Z,5.37
2023-05-16T17:33:14.181Z,3.57
2023-05-16T17:35:41.608Z,4.00
2023-05-16T17:38:10.262Z,3.37
2023-05-16T17:40:37.611Z,1.93
2023-05-16T17:43:05.558Z,2.70
2023-05-16T17:45:32.890Z,2.20
2023-05-16T17:48:00.303Z,2.40
2023-05-16T17:50:32.484Z,3.40
2023-05-16T17:53:00.073Z,3.70
2023-05-16T17:55:27.731Z,3.33
2023-05-16T17:57:55.300Z,2.83
2023-05-16T18:00:23.182Z,3.63
2023-05-16T18:02:52.257Z,4.77
2023-05-16T18:05:19.619Z,3.33
2023-05-16T18:07:46.971Z,2.63
2023-05-16T18:10:14.361Z,2.20
2023-05-16T18:12:41.796Z,3.43
2023-05-16T18:15:10.639Z,2.80
2023-05-16T18:17:38.131Z,3.93
2023-05-16T18:20:11.933Z,3.20
2023-05-16T18:22:39.709Z,3.90
2023-05-16T18:25:09.145Z,1.83
2023-05-16T18:27:36.860Z,3.90
2023-05-16T18:30:04.714Z,2.93
2023-05-16T18:32:32.299Z,3.83
2023-05-16T18:34:59.702Z,4.03
2023-05-16T18:37:27.121Z,3.10
2023-05-16T18:39:54.420Z,4.13
2023-05-16T18:42:21.935Z,2.20
2023-05-16T18:44:50.734Z,6.00
2023-05-16T18:47:18.238Z,3.30
2023-05-16T18:49:45.626Z,3.20
2023-05-16T18:52:12.887Z,4.67
2023-05-16T18:54:40.245Z,2.30
2023-05-16T18:57:07.962Z,2.80
2023-05-16T18:59:36.035Z,7.77
2023-05-16T19:02:04.584Z,2.27
2023-05-16T19:04:32.054Z,4.63
2023-05-16T19:07:00.559Z,7.20
2023-05-16T19:09:29.052Z,3.87
2023-05-16T19:11:56.704Z,2.80
2023-05-16T19:14:23.997Z,4.83
2023-05-16T19:16:51.325Z,4.50
2023-05-16T19:19:18.678Z,3.93
2023-05-16T19:21:47.128Z,4.47
2023-05-16T19:24:15.002Z,4.30
2023-05-16T19:26:42.299Z,3.87
2023-05-16T19:29:11.154Z,4.83
2023-05-16T19:31:38.582Z,3.47
2023-05-16T19:34:06.472Z,4.23
2023-05-16T19:36:33.873Z,4.67
2023-05-16T19:39:01.236Z,4.33
2023-05-16T19:41:28.695Z,5.47
2023-05-16T19:43:56.077Z,3.83
2023-05-16T19:46:23.888Z,5.77
2023-05-16T19:48:51.461Z,4.77
2023-05-16T19:51:29.571Z,5.90
2023-05-16T19:54:05.371Z,4.67
2023-05-16T19:56:32.654Z,4.53
2023-05-16T19:58:59.975Z,11.10
2023-05-16T20:01:27.388Z,10.30
2023-05-16T20:03:54.807Z,4.87
2023-05-16T20:06:22.160Z,6.27
2023-05-16T20:08:49.543Z,4.13
2023-05-16T20:11:17.176Z,3.17
2023-05-16T20:13:44.671Z,4.30
2023-05-16T20:16:12.727Z,4.13
2023-05-16T20:18:40.176Z,4.37
2023-05-16T20:21:07.836Z,5.37
2023-05-16T20:23:36.074Z,2.77
2023-05-16T20:26:03.554Z,3.30
2023-05-16T20:28:31.730Z,2.97
2023-05-16T20:30:59.213Z,4.17
2023-05-16T20:33:26.863Z,2.13
2023-05-16T20:35:54.376Z,3.60
2023-05-16T20:38:21.983Z,3.23
2023-05-16T20:40:49.711Z,1.50
2023-05-16T20:43:17.068Z,2.57
2023-05-16T20:45:44.737Z,1.53
2023-05-16T20:48:14.038Z,2.33
2023-05-16T20:50:41.881Z,2.50
2023-05-16T20:53:09.803Z,2.43
2023-05-16T20:55:37.308Z,3.00
2023-05-16T20:58:04.870Z,2.73
2023-05-16T21:00:33.793Z,2.70
2023-05-16T21:03:01.813Z,2.63
2023-05-16T21:05:29.691Z,4.80
2023-05-16T21:07:57.721Z,1.73
2023-05-16T21:10:26.775Z,2.23
2023-05-16T21:12:54.451Z,2.90
2023-05-16T21:15:23.279Z,3.53
2023-05-16T21:17:51.628Z,3.10
2023-05-16T21:20:19.406Z,1.80
2023-05-16T21:22:46.848Z,4.10
2023-05-16T21:25:14.616Z,2.47
2023-05-16T21:27:42.330Z,2.83
2023-05-16T21:30:10.357Z,1.53
2023-05-16T21:32:37.774Z,2.73
2023-05-16T21:35:06.809Z,2.80
2023-05-16T21:37:34.236Z,1.90
2023-05-16T21:40:02.165Z,2.00
2023-05-16T21:42:29.591Z,2.57
2023-05-16T21:44:57.201Z,3.00
2023-05-16T21:47:24.669Z,2.13
2023-05-16T21:49:52.204Z,2.90
2023-05-16T21:52:19.619Z,3.77
2023-05-16T21:54:51.488Z,1.87
2023-05-16T21:57:19.669Z,4.03
2023-05-16T21:59:50.318Z,1.50
2023-05-16T22:02:22.571Z,2.23
2023-05-16T22:04:50.334Z,3.57
2023-05-16T22:07:17.714Z,2.63
2023-05-16T22:09:45.197Z,2.50
2023-05-16T22:12:12.563Z,1.80
2023-05-16T22:14:39.821Z,2.80
2023-05-16T22:17:07.113Z,1.93
2023-05-16T22:19:34.456Z,3.80
2023-05-16T22:22:01.770Z,1.53
2023-05-16T22:24:29.067Z,2.73
2023-05-16T22:26:56.338Z,1.83
2023-05-16T22:29:23.615Z,2.53
2023-05-16T22:31:51.391Z,2.30
2023-05-16T22:34:18.884Z,2.43
2023-05-16T22:36:46.544Z,2.10
2023-05-16T22:39:13.886Z,3.40
2023-05-16T22:41:41.533Z,1.97
2023-05-16T22:44:08.830Z,2.50
2023-05-16T22:46:36.312Z,2.00
2023-05-16T22:49:03.665Z,2.70
2023-05-16T22:51:31.772Z,3.83
2023-05-16T22:53:59.048Z,1.70
2023-05-16T22:56:26.380Z,3.13
2023-05-16T22:58:53.639Z,2.07
2023-05-16T23:01:22.026Z,2.60
2023-05-16T23:03:49.449Z,1.53
2023-05-16T23:06:17.077Z,2.37
2023-05-16T23:08:44.334Z,1.83
2023-05-16T23:11:12.042Z,4.60
2023-05-16T23:13:39.538Z,2.37
2023-05-16T23:16:06.965Z,2.40
2023-05-16T23:18:34.486Z,1.87
2023-05-16T23:21:01.898Z,2.40
2023-05-16T23:23:29.185Z,1.97
2023-05-16T23:25:56.446Z,1.33
2023-05-16T23:28:23.768Z,1.73
2023-05-16T23:30:51.390Z,1.50
2023-05-16T23:33:18.736Z,1.70
2023-05-16T23:35:46.125Z,1.80
2023-05-16T23:38:13.725Z,2.57
2023-05-16T23:40:40.963Z,2.23
2023-05-16T23:43:08.275Z,1.80
2023-05-16T23:45:35.546Z,1.50
2023-05-16T23:48:03.582Z,2.27
2023-05-16T23:50:30.928Z,2.03
2023-05-16T23:52:58.550Z,1.67
2023-05-16T23:55:26.098Z,1.70
2023-05-16T23:57:53.655Z,2.27
